Time;durP1;ratioP1;P1;durP2;ratioP2;P2;SDS_P1;SDS_P2;PMS_P1;PMS_P2;Temp;Humidity;BMP_temperature;BMP_pressure;BME280_temperature;BME280_humidity;BME280_pressure;Samples;Min_cycle;Max_cycle;Signal;HPM_P1;HPM_P2
2022/02/10 00:03:09;;;;;;;28.08;19.05;;;8.10;99.90;;;;;;5047258;28;20107;-85
2022/02/10 00:15:07;;;;;;;;;;;8.10;99.90;;;;;;5016990;28;20057;-85
2022/02/10 00:20:37;;;;;;;18.30;15.77;;;8.10;99.90;;;;;;5001062;28;20068;-85
2022/02/10 00:34:12;;;;;;;25.58;18.27;;;8.10;99.90;;;;;;5034014;28;20056;-85
2022/02/10 00:34:13;;;;;;;25.00;18.70;;;8.10;99.90;;;;;;5033694;28;20131;-85
2022/02/10 00:39:40;;;;;;;22.83;16.73;;;8.00;99.90;;;;;;5033625;28;20056;-85
2022/02/10 00:42:07;;;;;;;24.15;17.05;;;8.00;99.90;;;;;;5013290;28;20045;-85
2022/02/10 00:44:35;;;;;;;23.35;17.65;;;8.00;99.90;;;;;;5015183;28;20103;-84
2022/02/10 00:47:02;;;;;;;23.30;17.10;;;8.00;99.90;;;;;;5017716;28;20041;-85
2022/02/10 00:49:29;;;;;;;25.75;17.02;;;7.90;99.90;;;;;;5017196;28;20147;-85
2022/02/10 00:51:56;;;;;;;22.13;15.52;;;7.80;99.90;;;;;;5016540;28;20036;-84
2022/02/10 00:54:26;;;;;;;24.77;15.93;;;7.70;99.90;;;;;;5015603;28;20059;-85
2022/02/10 00:56:56;;;;;;;19.85;15.30;;;7.60;99.90;;;;;;5033130;28;20045;-85
2022/02/10 00:59:38;;;;;;;23.60;15.35;;;7.50;99.90;;;;;;5016483;28;20349;-85
2022/02/10 01:10:29;;;;;;;20.52;14.95;;;7.50;99.90;;;;;;5043094;28;20052;-84
2022/02/10 01:13:20;;;;;;;18.00;14.60;;;7.50;99.90;;;;;;5033077;28;20049;-85
2022/02/10 01:29:45;;;;;;;19.90;13.15;;;7.40;99.90;;;;;;5032560;28;20382;-85
2022/02/10 01:32:13;;;;;;;18.75;13.63;;;7.40;99.90;;;;;;5015595;28;20494;-85
2022/02/10 01:34:49;;;;;;;17.77;13.27;;;7.40;99.90;;;;;;5012961;28;20572;-85
2022/02/10 01:37:18;;;;;;;21.65;14.07;;;7.40;99.90;;;;;;5022293;28;20084;-85
2022/02/10 01:39:50;;;;;;;20.73;13.93;;;7.40;99.90;;;;;;5012752;28;20044;-85
2022/02/10 02:04:54;;;;;;;19.85;13.68;;;7.30;99.90;;;;;;5016007;28;20676;-85
2022/02/10 02:07:27;;;;;;;18.10;13.52;;;7.30;99.90;;;;;;5009473;28;20037;-85
2022/02/10 02:09:55;;;;;;;14.68;11.50;;;7.20;99.90;;;;;;5030581;28;20107;-85
2022/02/10 02:12:22;;;;;;;18.75;12.90;;;7.10;99.90;;;;;;5032374;28;20052;-85
2022/02/10 02:14:49;;;;;;;16.60;12.77;;;7.10;99.90;;;;;;5015378;28;20072;-84
2022/02/10 02:17:15;;;;;;;19.80;13.40;;;7.00;99.90;;;;;;5032026;28;20206;-84
2022/02/10 02:19:42;;;;;;;20.05;13.57;;;7.00;99.90;;;;;;5026587;28;20058;-84
2022/02/10 02:22:12;;;;;;;19.65;12.77;;;7.00;99.90;;;;;;5007697;28;20053;-85
2022/02/10 02:24:39;;;;;;;16.88;11.52;;;7.00;99.90;;;;;;5009183;28;20061;-84
2022/02/10 02:27:09;;;;;;;15.45;11.40;;;7.00;99.90;;;;;;4992295;28;20046;-86
2022/02/10 02:29:41;;;;;;;15.30;10.32;;;6.90;99.90;;;;;;5025169;28;20119;-84
2022/02/10 02:32:21;;;;;;;15.15;11.15;;;6.90;99.90;;;;;;5007429;28;20152;-84
2022/02/10 02:35:16;;;;;;;17.80;10.95;;;6.80;99.90;;;;;;5020653;28;20053;-86
2022/02/10 02:38:00;;;;;;;17.77;10.73;;;6.80;99.90;;;;;;5028371;28;20115;-85
2022/02/10 03:07:48;;;;;;;13.43;11.23;;;5.90;99.90;;;;;;5021170;28;20356;-84
2022/02/10 03:12:42;;;;;;;12.93;9.73;;;5.80;99.90;;;;;;5045705;28;20045;-86
2022/02/10 03:15:19;;;;;;;17.42;10.48;;;5.70;99.90;;;;;;5026622;28;20495;-86
2022/02/10 03:17:58;;;;;;;20.33;10.68;;;5.60;99.90;;;;;;5007774;28;20054;-84
2022/02/10 04:16:47;;;;;;;31.33;15.60;;;3.50;99.90;;;;;;5007737;28;20048;-85
2022/02/10 04:22:20;;;;;;;;;;;3.40;99.90;;;;;;5030645;28;20564;-86
2022/02/10 05:00:16;;;;;;;44.17;22.90;;;3.80;99.90;;;;;;5025185;28;20053;-83
2022/02/10 05:06:01;;;;;;;53.92;23.73;;;3.70;99.90;;;;;;5014354;28;20062;-85
2022/02/10 05:19:15;;;;;;;41.38;20.02;;;3.50;99.90;;;;;;4991303;28;20668;-84
2022/02/10 05:24:26;;;;;;;69.57;27.25;;;3.40;99.90;;;;;;5018426;28;20045;-84
2022/02/10 05:31:35;;;;;;;59.00;27.42;;;3.60;99.90;;;;;;5028284;28;20536;-85
2022/02/10 05:38:07;;;;;;;55.45;26.83;;;3.90;99.90;;;;;;5016009;28;20144;-84
2022/02/10 05:51:45;;;;;;;48.90;23.08;;;4.10;99.90;;;;;;5028116;28;20068;-85
2022/02/10 06:39:41;;;;;;;71.30;33.40;;;3.60;99.90;;;;;;5026750;28;20109;-84
2022/02/10 06:52:01;;;;;;;63.03;30.60;;;4.10;99.90;;;;;;4962284;28;19952;-84
2022/02/10 08:04:15;;;;;;;35.55;22.17;;;5.00;99.90;;;;;;5034385;28;20064;-82
2022/02/10 08:59:42;;;;;;;;;;;6.50;99.90;;;;;;5014570;28;20090;-83
2022/02/10 09:04:54;;;;;;;21.75;13.23;;;6.50;99.90;;;;;;5018025;28;20111;-83
2022/02/10 09:15:32;;;;;;;17.25;11.55;;;6.50;99.90;;;;;;5033334;28;20056;-84
2022/02/10 09:49:55;;;;;;;20.23;12.77;;;7.00;99.90;;;;;;5031994;28;20079;-83
2022/02/10 10:01:45;;;;;;;25.45;15.13;;;6.90;99.90;;;;;;5034417;28;20059;-84
2022/02/10 10:04:33;;;;;;;24.08;15.88;;;6.90;99.90;;;;;;5019534;28;20302;-84
2022/02/10 10:07:51;;;;;;;22.75;14.52;;;6.90;99.90;;;;;;5019430;28;20053;-85
2022/02/10 10:10:45;;;;;;;23.80;14.05;;;6.80;99.90;;;;;;5033833;28;20041;-85
2022/02/10 10:18:50;;;;;;;33.15;16.23;;;6.80;99.90;;;;;;5048233;28;20128;-84
2022/02/10 10:21:41;;;;;;;27.80;16.25;;;6.80;99.90;;;;;;5053977;28;20040;-84
2022/02/10 10:52:08;;;;;;;40.70;20.40;;;6.60;99.90;;;;;;5019844;28;20368;-86
2022/02/10 10:54:48;;;;;;;32.72;19.00;;;6.60;99.90;;;;;;5003101;28;20057;-85
2022/02/10 10:57:22;;;;;;;33.13;19.25;;;6.70;99.90;;;;;;5001522;28;20053;-83
2022/02/10 11:42:10;;;;;;;75.88;39.47;;;6.20;99.90;;;;;;5043487;28;20505;-82
2022/02/10 13:25:37;;;;;;;14.00;8.75;;;5.80;99.90;;;;;;5029869;28;20059;-82
2022/02/10 13:31:18;;;;;;;13.85;8.38;;;5.80;99.90;;;;;;5011666;28;20049;-81
2022/02/10 14:12:47;;;;;;;16.38;10.13;;;5.70;99.90;;;;;;5046442;28;20060;-82
2022/02/10 14:25:55;;;;;;;20.45;10.65;;;5.30;99.90;;;;;;5034853;28;20534;-81
2022/02/10 14:28:23;;;;;;;14.90;9.00;;;5.30;99.90;;;;;;4991025;28;20042;-80
2022/02/10 14:30:52;;;;;;;13.85;8.10;;;5.20;99.90;;;;;;5022616;28;20123;-80
2022/02/10 14:33:27;;;;;;;15.40;9.65;;;5.20;99.90;;;;;;5023664;28;20049;-79
2022/02/10 14:36:09;;;;;;;15.75;9.43;;;5.20;99.90;;;;;;5021121;28;20135;-80
2022/02/10 14:38:57;;;;;;;14.63;8.85;;;5.20;99.90;;;;;;5014072;28;20052;-82
2022/02/10 15:12:12;;;;;;;30.40;15.95;;;5.30;99.90;;;;;;5024086;28;20052;-80
2022/02/10 15:50:06;;;;;;;25.17;14.23;;;5.20;99.90;;;;;;5008615;28;20274;-84
2022/02/10 16:17:08;;;;;;;24.85;12.73;;;5.10;99.90;;;;;;5050057;28;20049;-83
2022/02/10 16:19:36;;;;;;;25.38;12.75;;;5.10;99.90;;;;;;5045034;28;20096;-84
2022/02/10 16:24:46;;;;;;;31.40;14.07;;;5.00;99.90;;;;;;5054058;28;20532;-83
2022/02/10 16:27:17;;;;;;;25.50;14.80;;;5.00;99.90;;;;;;5036946;28;20124;-85
2022/02/10 16:29:46;;;;;;;27.00;14.63;;;5.00;99.90;;;;;;5023580;28;20417;-84
2022/02/10 16:32:40;;;;;;;;;;;5.00;99.90;;;;;;5025631;28;20045;-81
2022/02/10 16:35:15;;;;;;;24.40;12.98;;;5.00;99.90;;;;;;5038146;28;19928;-84
2022/02/10 16:37:47;;;;;;;22.75;13.27;;;5.00;99.90;;;;;;5039019;28;20041;-83
2022/02/10 16:40:22;;;;;;;28.23;14.38;;;5.00;99.90;;;;;;5033348;28;20320;-80
2022/02/10 16:42:49;;;;;;;34.45;17.80;;;5.00;99.90;;;;;;5047845;28;20195;-83
2022/02/10 16:45:22;;;;;;;40.90;19.20;;;5.10;99.90;;;;;;5050748;28;20675;-82
2022/02/10 16:47:55;;;;;;;42.53;20.58;;;5.10;99.90;;;;;;5033784;28;20097;-83
2022/02/10 16:50:33;;;;;;;42.15;20.40;;;5.10;99.90;;;;;;5049379;28;20092;-84
2022/02/10 16:53:17;;;;;;;44.30;20.38;;;5.10;99.90;;;;;;5018622;28;20112;-83
2022/02/10 16:56:04;;;;;;;40.45;21.08;;;5.10;99.90;;;;;;5031036;28;20051;-81
2022/02/10 16:58:42;;;;;;;49.47;25.27;;;5.10;99.90;;;;;;5031641;28;20072;-81
2022/02/10 17:04:52;;;;;;;30.83;15.60;;;5.00;99.90;;;;;;4969835;28;20103;-82
2022/02/10 17:18:39;;;;;;;23.35;12.38;;;4.80;99.90;;;;;;5047291;28;20048;-81
2022/02/10 17:29:38;;;;;;;19.70;11.20;;;4.80;99.90;;;;;;5029061;28;20049;-81
2022/02/10 17:35:15;;;;;;;19.73;10.55;;;4.70;99.90;;;;;;5025271;28;20053;-80
2022/02/10 17:53:55;;;;;;;21.10;10.10;;;4.70;99.90;;;;;;5042476;28;20153;-82
2022/02/10 17:56:24;;;;;;;19.13;8.52;;;4.70;99.90;;;;;;5007854;28;20083;-80
2022/02/10 17:58:51;;;;;;;20.38;10.55;;;4.60;99.90;;;;;;5028833;28;20053;-81
2022/02/10 18:01:18;;;;;;;21.55;10.15;;;4.70;99.90;;;;;;5007571;28;20056;-81
2022/02/10 18:03:46;;;;;;;18.40;9.50;;;4.60;99.90;;;;;;5007738;28;20045;-81
2022/02/10 18:16:29;;;;;;;33.78;17.40;;;4.70;99.90;;;;;;5003100;28;20049;-82
2022/02/10 18:19:21;;;;;;;33.30;17.92;;;4.80;99.90;;;;;;4988381;28;20439;-81
2022/02/10 19:03:32;;;;;;;27.63;13.68;;;4.50;99.90;;;;;;5020733;28;20109;-83
2022/02/10 19:08:09;;;;;;;20.70;11.82;;;4.40;99.90;;;;;;5010265;28;20486;-83
2022/02/10 19:10:44;;;;;;;16.52;10.02;;;4.40;99.90;;;;;;5005687;28;20057;-83
2022/02/10 19:13:10;;;;;;;17.00;10.35;;;4.30;99.90;;;;;;5025820;28;20057;-83
2022/02/10 19:15:37;;;;;;;18.20;10.68;;;4.30;99.90;;;;;;5008871;28;20061;-83
2022/02/10 19:18:07;;;;;;;15.13;9.18;;;4.30;99.90;;;;;;5024274;28;20049;-83
2022/02/10 19:20:34;;;;;;;26.65;14.85;;;4.40;99.90;;;;;;5019430;28;20090;-81
2022/02/10 19:23:05;;;;;;;31.58;14.40;;;4.40;99.90;;;;;;5024307;28;20057;-82
2022/02/10 19:25:38;;;;;;;27.85;17.27;;;4.40;99.90;;;;;;5024600;28;20465;-83
2022/02/10 19:28:08;;;;;;;30.67;17.73;;;4.50;99.90;;;;;;5024758;28;20407;-82
2022/02/10 19:30:40;;;;;;;34.83;19.90;;;4.40;99.90;;;;;;5024284;28;20212;-83
2022/02/10 19:33:13;;;;;;;40.85;21.17;;;4.50;99.90;;;;;;4988683;28;20256;-84
2022/02/10 19:35:51;;;;;;;42.53;23.38;;;4.50;99.90;;;;;;5004719;28;20056;-83
2022/02/10 19:38:21;;;;;;;39.72;22.83;;;4.50;99.90;;;;;;5012600;28;20118;-83
2022/02/10 19:40:53;;;;;;;42.70;22.88;;;4.60;99.90;;;;;;5024208;28;20053;-82
2022/02/10 19:43:21;;;;;;;51.33;25.05;;;4.70;99.90;;;;;;4990662;28;20060;-82
2022/02/10 19:45:49;;;;;;;21.65;11.75;;;4.70;99.90;;;;;;4990198;28;20514;-81
2022/02/10 19:48:17;;;;;;;16.23;8.30;;;4.40;99.90;;;;;;5020963;28;20041;-81
2022/02/10 19:50:44;;;;;;;14.27;8.32;;;4.10;99.90;;;;;;5010409;28;20205;-81
2022/02/10 19:53:17;;;;;;;17.45;9.07;;;4.00;99.90;;;;;;5007273;28;20350;-82
2022/02/10 19:55:48;;;;;;;17.35;10.30;;;3.80;99.90;;;;;;4992134;28;20084;-82
2022/02/10 19:58:20;;;;;;;19.45;10.93;;;3.80;99.90;;;;;;5007647;28;20511;-83
2022/02/10 20:00:48;;;;;;;24.60;14.20;;;3.80;99.90;;;;;;5006197;28;20252;-83
2022/02/10 20:03:21;;;;;;;29.02;14.38;;;3.90;99.90;;;;;;5014232;28;20127;-83
2022/02/10 20:05:50;;;;;;;31.73;17.30;;;4.00;99.90;;;;;;5005464;28;20053;-83
2022/02/10 20:08:19;;;;;;;37.70;23.17;;;4.10;99.90;;;;;;5010796;28;20052;-83
2022/02/10 20:10:51;;;;;;;47.55;23.13;;;4.20;99.90;;;;;;5007350;28;20059;-83
2022/02/10 20:13:17;;;;;;;40.80;23.38;;;4.20;99.90;;;;;;5025594;28;20060;-81
2022/02/10 20:15:46;;;;;;;42.90;23.73;;;4.30;99.90;;;;;;5010088;28;20045;-81
2022/02/10 20:18:15;;;;;;;44.47;23.55;;;4.30;99.90;;;;;;5009522;28;20049;-83
2022/02/10 20:20:46;;;;;;;25.25;15.75;;;4.20;99.90;;;;;;5042217;28;20048;-83
2022/02/10 20:23:15;;;;;;;20.50;12.75;;;3.90;99.90;;;;;;5031202;28;20428;-82
2022/02/10 20:26:02;;;;;;;20.02;11.57;;;3.60;99.90;;;;;;5032905;28;20048;-82
2022/02/10 20:28:29;;;;;;;18.90;9.43;;;3.40;99.90;;;;;;5029821;28;20052;-82
2022/02/10 20:31:00;;;;;;;16.52;8.73;;;3.50;99.90;;;;;;5029518;28;20312;-83
2022/02/10 20:33:29;;;;;;;15.93;7.68;;;3.50;99.90;;;;;;5030709;28;20259;-84
2022/02/10 20:35:58;;;;;;;17.42;7.32;;;3.40;99.90;;;;;;5031598;28;20078;-83
2022/02/10 20:38:28;;;;;;;11.80;6.07;;;3.50;99.90;;;;;;5026633;28;20440;-82
2022/02/10 20:41:00;;;;;;;15.40;8.23;;;3.50;99.90;;;;;;5012654;28;20468;-82
2022/02/10 20:43:27;;;;;;;16.08;8.07;;;3.60;99.90;;;;;;5028482;28;20121;-82
2022/02/10 20:45:59;;;;;;;17.75;7.95;;;3.60;99.90;;;;;;5000752;28;20497;-82
2022/02/10 20:48:28;;;;;;;15.63;8.55;;;3.60;99.90;;;;;;5026198;28;20045;-82
2022/02/10 20:50:57;;;;;;;17.10;8.25;;;3.60;99.90;;;;;;5012933;28;20049;-83
2022/02/10 20:53:25;;;;;;;20.45;9.30;;;3.60;99.90;;;;;;5013145;28;20059;-83
2022/02/10 20:56:01;;;;;;;18.45;8.35;;;3.60;99.90;;;;;;5013563;28;20055;-83
2022/02/10 20:58:30;;;;;;;10.07;5.57;;;3.50;99.90;;;;;;5012665;28;20119;-82
2022/02/10 21:01:00;;;;;;;11.38;5.72;;;3.50;99.90;;;;;;5012614;28;20085;-83
2022/02/10 21:03:30;;;;;;;11.30;5.60;;;3.40;99.90;;;;;;5011364;28;20129;-82
2022/02/10 21:08:52;;;;;;;11.90;5.90;;;3.20;99.90;;;;;;5014393;28;20136;-81
2022/02/10 21:11:22;;;;;;;17.25;7.05;;;3.20;99.90;;;;;;5006687;28;20056;-81
2022/02/10 21:13:49;;;;;;;11.63;5.20;;;3.20;99.90;;;;;;5010424;28;20156;-82
2022/02/10 21:16:16;;;;;;;10.55;6.47;;;3.20;99.90;;;;;;5020155;28;20202;-82
2022/02/10 21:18:44;;;;;;;11.68;5.00;;;3.20;99.90;;;;;;5007868;28;20049;-81
2022/02/10 21:21:17;;;;;;;10.93;4.70;;;3.10;99.90;;;;;;5044650;28;20041;-82
2022/02/10 21:24:01;;;;;;;12.18;5.55;;;3.10;99.90;;;;;;5029493;28;20079;-82
2022/02/10 21:26:37;;;;;;;12.30;5.70;;;3.10;99.90;;;;;;5029734;28;20072;-81
2022/02/10 21:29:06;;;;;;;11.77;5.38;;;3.10;99.90;;;;;;5009962;28;20049;-82
2022/02/10 21:31:42;;;;;;;13.25;5.28;;;3.00;99.90;;;;;;5037759;28;20048;-81
2022/02/10 21:34:22;;;;;;;7.75;4.15;;;3.00;99.90;;;;;;5012406;28;20487;-80
2022/02/10 21:37:08;;;;;;;12.07;5.18;;;3.10;99.90;;;;;;5019895;28;20052;-80
2022/02/10 21:39:59;;;;;;;12.23;5.82;;;3.10;99.90;;;;;;5008759;28;20087;-80
2022/02/10 21:47:54;;;;;;;15.98;7.80;;;3.10;99.90;;;;;;5024208;28;20052;-81
2022/02/10 21:52:47;;;;;;;12.52;6.13;;;3.20;99.90;;;;;;5009076;28;20608;-80
2022/02/10 21:53:56;;;;;;;11.88;6.05;;;3.10;99.90;;;;;;5025906;28;20102;-81
2022/02/10 21:56:30;;;;;;;14.23;5.38;;;3.10;99.90;;;;;;5024472;28;20764;-80
2022/02/10 22:20:31;;;;;;;11.32;6.10;;;3.10;99.90;;;;;;5020811;28;20037;-82
2022/02/10 22:23:07;;;;;;;10.55;5.65;;;3.10;99.90;;;;;;5021652;28;20211;-81
2022/02/10 22:25:35;;;;;;;12.38;5.30;;;3.10;99.90;;;;;;5020744;28;20052;-79
2022/02/10 22:28:13;;;;;;;6.68;4.18;;;3.00;99.90;;;;;;5013798;28;20088;-82
2022/02/10 22:30:48;;;;;;;10.90;5.47;;;2.90;99.90;;;;;;5004954;28;20203;-81
2022/02/10 22:33:28;;;;;;;11.00;6.40;;;2.90;99.90;;;;;;5006309;28;20065;-82
2022/02/10 22:36:01;;;;;;;10.40;5.65;;;3.00;99.90;;;;;;5017296;28;20109;-81
2022/02/10 22:38:28;;;;;;;10.32;5.72;;;2.90;99.90;;;;;;5009310;28;20751;-83
2022/02/10 22:43:22;;;;;;;8.82;5.10;;;2.90;99.90;;;;;;5024045;28;20061;-81
2022/02/10 22:45:49;;;;;;;12.63;5.15;;;2.80;99.90;;;;;;4997853;28;20049;-81
2022/02/10 22:48:17;;;;;;;14.38;5.57;;;2.80;99.90;;;;;;5018004;28;20045;-82
2022/02/10 22:50:43;;;;;;;11.40;5.93;;;2.80;99.90;;;;;;5040953;28;20677;-83
2022/02/10 22:53:10;;;;;;;17.30;6.25;;;2.70;99.90;;;;;;5008089;28;20290;-82
2022/02/10 22:55:38;;;;;;;13.40;6.43;;;2.70;99.90;;;;;;5007971;28;20053;-81
2022/02/10 22:58:05;;;;;;;11.57;5.78;;;2.70;99.90;;;;;;5020411;28;20107;-82
2022/02/10 23:00:47;;;;;;;19.05;7.43;;;2.70;99.90;;;;;;5004822;28;20118;-81
2022/02/10 23:03:25;;;;;;;15.95;7.32;;;2.70;99.90;;;;;;5019865;28;20053;-82
2022/02/10 23:05:52;;;;;;;13.98;7.65;;;2.60;99.90;;;;;;5020602;28;20119;-81
2022/02/10 23:08:19;;;;;;;11.18;5.95;;;2.50;99.90;;;;;;5022324;28;20037;-80
2022/02/10 23:10:48;;;;;;;16.83;6.65;;;2.40;99.90;;;;;;5006819;28;20049;-83
2022/02/10 23:13:20;;;;;;;13.05;7.32;;;2.40;99.90;;;;;;5024184;28;20512;-81
2022/02/10 23:15:47;;;;;;;14.82;7.05;;;2.30;99.90;;;;;;5006992;28;20656;-83
2022/02/10 23:18:25;;;;;;;14.68;6.20;;;2.30;99.90;;;;;;5022029;28;20048;-79
2022/02/10 23:20:55;;;;;;;18.67;7.13;;;2.30;99.90;;;;;;5018351;28;20284;-80
2022/02/10 23:23:24;;;;;;;15.63;7.10;;;2.30;99.90;;;;;;5026910;28;20056;-82
2022/02/10 23:25:52;;;;;;;15.38;7.05;;;2.30;99.90;;;;;;5042831;28;20249;-81
2022/02/10 23:28:28;;;;;;;15.35;6.85;;;2.30;99.90;;;;;;5026257;28;20463;-82
2022/02/10 23:30:57;;;;;;;18.45;7.28;;;2.40;99.90;;;;;;5004517;28;20301;-81
2022/02/10 23:33:28;;;;;;;14.25;6.65;;;2.40;99.90;;;;;;5023877;28;20284;-81
2022/02/10 23:43:54;;;;;;;14.18;5.57;;;2.40;99.90;;;;;;5023610;28;20068;-81
2022/02/10 23:46:22;;;;;;;13.50;5.95;;;2.40;99.90;;;;;;5007131;28;20485;-82
2022/02/10 23:48:53;;;;;;;13.05;5.82;;;2.40;99.90;;;;;;5023291;28;20477;-81
2022/02/10 23:51:23;;;;;;;13.80;6.05;;;2.40;99.90;;;;;;5006917;28;20134;-82
2022/02/10 23:53:49;;;;;;;9.10;5.15;;;2.40;99.90;;;;;;5007177;28;20517;-81
2022/02/10 23:56:18;;;;;;;12.75;5.93;;;2.40;99.90;;;;;;5022494;28;20047;-81
